createdAt,value
2023-04-28T00:01:00.575Z,3.42
2023-04-28T00:03:20.728Z,3.83
2023-04-28T00:05:41.095Z,4.38
2023-04-28T00:08:02.724Z,3.78
2023-04-28T00:10:22.721Z,4.18
2023-04-28T00:12:43.010Z,4.80
2023-04-28T00:15:03.093Z,4.20
2023-04-28T00:17:23.407Z,4.03
2023-04-28T00:19:44.529Z,3.25
2023-04-28T00:22:04.600Z,4.38
2023-04-28T00:24:24.424Z,5.25
2023-04-28T00:26:44.809Z,3.30
2023-04-28T00:29:04.924Z,4.50
2023-04-28T00:31:25.440Z,3.97
2023-04-28T00:33:45.913Z,4.72
2023-04-28T00:36:06.520Z,4.57
2023-04-28T00:38:26.991Z,4.78
2023-04-28T00:40:47.561Z,3.80
2023-04-28T00:43:07.890Z,4.95
2023-04-28T00:45:27.997Z,4.35
2023-04-28T00:47:48.356Z,5.00
2023-04-28T00:50:09.927Z,3.42
2023-04-28T00:52:30.133Z,3.75
2023-04-28T00:54:50.264Z,2.80
2023-04-28T00:57:10.527Z,3.28
2023-04-28T00:59:30.655Z,3.15
2023-04-28T01:01:50.990Z,3.33
2023-04-28T01:04:11.601Z,4.05
2023-04-28T01:06:32.257Z,4.20
2023-04-28T01:08:52.780Z,4.30
2023-04-28T01:11:15.717Z,4.18
2023-04-28T01:13:35.716Z,4.32
2023-04-28T01:15:56.138Z,5.20
2023-04-28T01:18:17.026Z,5.35
2023-04-28T01:20:37.065Z,4.55
2023-04-28T01:22:57.329Z,4.38
2023-04-28T01:25:17.492Z,4.20
2023-04-28T01:27:37.820Z,6.50
2023-04-28T01:29:58.064Z,4.63
2023-04-28T01:32:18.265Z,5.78
2023-04-28T01:34:38.554Z,3.20
2023-04-28T01:36:58.874Z,4.75
2023-04-28T01:39:18.974Z,5.07
2023-04-28T01:41:39.114Z,4.40
2023-04-28T01:43:59.753Z,3.80
2023-04-28T01:46:20.266Z,4.35
2023-04-28T01:48:40.360Z,3.30
2023-04-28T01:51:00.466Z,4.38
2023-04-28T01:53:20.784Z,4.43
2023-04-28T01:55:41.024Z,3.83
2023-04-28T01:58:01.297Z,4.53
2023-04-28T02:00:21.481Z,3.95
2023-04-28T02:02:41.979Z,4.85
2023-04-28T02:05:02.465Z,4.28
2023-04-28T02:07:22.689Z,4.60
2023-04-28T02:09:42.732Z,4.88
2023-04-28T02:12:03.251Z,4.82
2023-04-28T02:14:23.866Z,5.00
2023-04-28T02:16:44.136Z,5.05
2023-04-28T02:19:04.256Z,5.32
2023-04-28T02:21:25.754Z,5.18
2023-04-28T02:23:46.006Z,4.78
2023-04-28T02:26:06.399Z,5.05
2023-04-28T02:28:26.809Z,5.00
2023-04-28T02:30:47.186Z,4.28
2023-04-28T02:33:07.519Z,4.85
2023-04-28T02:35:27.673Z,4.55
2023-04-28T02:37:48.131Z,4.20
2023-04-28T02:40:08.541Z,4.70
2023-04-28T02:42:28.846Z,4.38
2023-04-28T02:44:49.225Z,4.85
2023-04-28T02:47:09.532Z,4.90
2023-04-28T02:49:30.162Z,4.88
2023-04-28T02:51:50.201Z,4.88
2023-04-28T02:54:10.491Z,4.45
2023-04-28T02:56:30.891Z,4.88
2023-04-28T02:58:51.371Z,4.47
2023-04-28T03:01:11.939Z,5.57
2023-04-28T03:03:33.154Z,6.05
2023-04-28T03:05:53.323Z,5.28
2023-04-28T03:08:14.121Z,6.25
2023-04-28T03:10:34.454Z,5.65
2023-04-28T03:12:54.759Z,6.43
2023-04-28T03:15:14.718Z,6.25
2023-04-28T03:17:41.137Z,6.82
2023-04-28T03:20:01.576Z,6.95
2023-04-28T03:22:22.035Z,6.85
2023-04-28T03:24:42.252Z,7.05
2023-04-28T03:27:03.060Z,7.57
2023-04-28T03:29:24.868Z,6.35
2023-04-28T03:31:45.288Z,5.97
2023-04-28T03:34:05.269Z,6.57
2023-04-28T03:36:26.840Z,6.20
2023-04-28T03:38:46.922Z,7.13
2023-04-28T03:41:07.027Z,5.72
2023-04-28T03:43:27.307Z,6.15
2023-04-28T03:45:47.470Z,6.57
2023-04-28T03:48:08.397Z,5.72
2023-04-28T03:50:28.437Z,7.05
2023-04-28T03:52:48.645Z,6.15
2023-04-28T03:55:08.948Z,5.55
2023-04-28T03:57:29.441Z,5.97
2023-04-28T03:59:49.411Z,6.55
2023-04-28T04:02:09.903Z,5.30
2023-04-28T04:04:30.688Z,6.10
2023-04-28T04:06:51.999Z,5.45
2023-04-28T04:09:11.948Z,5.78
2023-04-28T04:11:31.964Z,7.18
2023-04-28T04:13:52.170Z,5.68
2023-04-28T04:16:15.116Z,5.65
2023-04-28T04:20:56.550Z,5.68
2023-04-28T04:23:16.524Z,5.65
2023-04-28T04:25:36.764Z,6.85
2023-04-28T04:27:56.879Z,6.53
2023-04-28T04:30:17.109Z,7.32
2023-04-28T04:32:37.343Z,6.03
2023-04-28T04:34:57.837Z,6.97
2023-04-28T04:37:18.659Z,5.22
2023-04-28T04:39:39.134Z,5.65
2023-04-28T04:42:00.709Z,5.60
2023-04-28T04:44:23.764Z,5.53
2023-04-28T04:46:43.833Z,6.40
2023-04-28T04:49:04.042Z,5.97
2023-04-28T04:51:24.111Z,5.63
2023-04-28T04:53:44.475Z,6.47
2023-04-28T04:56:04.423Z,6.53
2023-04-28T04:58:24.920Z,6.15
2023-04-28T05:00:45.162Z,5.68
2023-04-28T05:03:05.655Z,5.72
2023-04-28T05:05:26.264Z,5.75
2023-04-28T05:07:46.586Z,5.43
2023-04-28T05:10:07.074Z,5.70
2023-04-28T05:12:27.467Z,5.97
2023-04-28T05:14:47.582Z,5.95
2023-04-28T05:17:07.757Z,5.50
2023-04-28T05:19:27.891Z,5.30
2023-04-28T05:21:48.134Z,5.38
2023-04-28T05:24:08.590Z,6.03
2023-04-28T05:26:28.655Z,5.28
2023-04-28T05:28:48.794Z,5.43
2023-04-28T05:31:08.923Z,4.82
2023-04-28T05:33:29.106Z,7.65
2023-04-28T05:35:49.382Z,4.93
2023-04-28T05:38:09.384Z,4.22
2023-04-28T05:40:29.736Z,6.10
2023-04-28T05:42:50.156Z,6.25
2023-04-28T05:45:10.606Z,4.68
2023-04-28T05:47:31.330Z,6.50
2023-04-28T05:49:51.631Z,6.78
2023-04-28T05:52:12.019Z,5.97
2023-04-28T05:54:33.901Z,6.20
2023-04-28T05:56:54.257Z,7.32
2023-04-28T05:59:15.065Z,5.55
2023-04-28T06:01:35.806Z,5.40
2023-04-28T06:03:58.010Z,5.95
2023-04-28T06:06:18.859Z,6.15
2023-04-28T06:08:39.244Z,5.20
2023-04-28T06:10:59.347Z,6.15
2023-04-28T06:13:19.922Z,5.32
2023-04-28T06:15:40.074Z,3.78
2023-04-28T06:18:00.894Z,4.70
2023-04-28T06:20:21.086Z,4.88
2023-04-28T06:22:42.428Z,8.50
2023-04-28T06:25:02.791Z,4.28
2023-04-28T06:27:22.994Z,4.68
2023-04-28T06:29:43.102Z,6.93
2023-04-28T06:32:03.459Z,3.08
2023-04-28T06:34:28.149Z,3.45
2023-04-28T06:36:48.433Z,4.28
2023-04-28T06:39:08.660Z,3.38
2023-04-28T06:41:28.664Z,3.20
2023-04-28T06:43:50.279Z,3.33
2023-04-28T06:46:10.891Z,4.60
2023-04-28T06:48:31.337Z,1.90
2023-04-28T06:50:51.342Z,2.72
2023-04-28T06:53:11.465Z,2.60
2023-04-28T06:55:31.651Z,3.00
2023-04-28T06:57:51.692Z,3.63
2023-04-28T07:00:12.753Z,4.18
2023-04-28T07:02:33.462Z,2.30
2023-04-28T07:04:54.788Z,2.38
2023-04-28T07:07:15.023Z,2.67
2023-04-28T07:09:35.527Z,2.72
2023-04-28T07:11:55.837Z,2.20
2023-04-28T07:14:16.831Z,2.20
2023-04-28T07:16:37.681Z,2.00
2023-04-28T07:18:57.652Z,2.50
2023-04-28T07:21:17.916Z,2.60
2023-04-28T07:23:38.271Z,3.53
2023-04-28T07:25:58.459Z,1.83
2023-04-28T07:28:19.712Z,1.90
2023-04-28T07:30:40.511Z,1.75
2023-04-28T07:33:00.953Z,1.95
2023-04-28T07:35:21.459Z,2.20
2023-04-28T07:37:41.838Z,2.88
2023-04-28T07:40:02.230Z,1.63
2023-04-28T07:42:22.545Z,1.48
2023-04-28T07:44:42.513Z,1.50
2023-04-28T07:47:03.381Z,1.50
2023-04-28T07:49:23.517Z,3.80
2023-04-28T07:51:43.785Z,2.15
2023-04-28T07:54:04.119Z,1.50
2023-04-28T07:56:25.597Z,3.47
2023-04-28T07:58:45.934Z,1.75
2023-04-28T08:01:06.213Z,2.10
2023-04-28T08:03:26.687Z,1.38
2023-04-28T08:05:47.138Z,5.15
2023-04-28T08:08:08.652Z,1.58
2023-04-28T08:10:28.985Z,9.85
2023-04-28T08:12:49.360Z,8.93
2023-04-28T08:15:10.121Z,2.70
2023-04-28T08:17:30.484Z,1.73
2023-04-28T08:19:50.961Z,2.95
2023-04-28T08:22:11.040Z,7.38
2023-04-28T08:24:33.652Z,1.40
2023-04-28T08:26:54.066Z,1.55
2023-04-28T08:29:14.234Z,1.52
2023-04-28T08:31:34.507Z,1.60
2023-04-28T08:33:55.603Z,3.80
2023-04-28T08:36:17.265Z,1.30
2023-04-28T08:38:38.533Z,1.10
2023-04-28T08:40:59.000Z,1.75
2023-04-28T08:43:20.970Z,1.00
2023-04-28T08:45:42.488Z,1.52
2023-04-28T08:48:03.676Z,2.05
2023-04-28T08:50:24.122Z,1.17
2023-04-28T08:52:44.531Z,1.77
2023-04-28T08:55:09.143Z,1.30
2023-04-28T08:57:31.025Z,1.10
2023-04-28T08:59:51.700Z,3.13
2023-04-28T09:02:12.094Z,1.00
2023-04-28T09:04:32.992Z,1.10
2023-04-28T09:06:53.516Z,1.08
2023-04-28T09:09:27.207Z,4.03
2023-04-28T09:12:05.660Z,0.90
2023-04-28T09:14:26.471Z,1.83
2023-04-28T09:16:47.205Z,2.35
2023-04-28T09:19:07.633Z,2.05
2023-04-28T09:21:28.027Z,1.33
2023-04-28T09:23:49.965Z,2.92
2023-04-28T09:26:10.503Z,1.10
2023-04-28T09:28:31.376Z,1.10
2023-04-28T09:30:51.847Z,1.00
2023-04-28T09:33:12.254Z,1.83
2023-04-28T09:35:44.509Z,1.00
2023-04-28T09:38:05.002Z,1.15
2023-04-28T09:40:25.083Z,1.00
2023-04-28T09:42:49.948Z,1.00
2023-04-28T09:45:11.207Z,3.28
2023-04-28T09:47:34.879Z,1.30
2023-04-28T09:49:59.236Z,1.05
2023-04-28T09:52:19.412Z,1.27
2023-04-28T09:54:39.644Z,2.50
2023-04-28T09:57:00.423Z,1.10
2023-04-28T09:59:21.041Z,1.85
2023-04-28T10:01:42.028Z,1.30
2023-04-28T10:04:04.247Z,1.20
2023-04-28T10:06:26.153Z,1.30
2023-04-28T10:08:47.654Z,1.52
2023-04-28T10:11:09.286Z,2.45
2023-04-28T10:13:29.870Z,1.10
2023-04-28T10:15:51.232Z,1.15
2023-04-28T10:18:13.145Z,1.30
2023-04-28T10:20:34.017Z,2.45
2023-04-28T10:22:54.370Z,1.10
2023-04-28T10:25:26.662Z,0.90
2023-04-28T10:27:47.556Z,1.20
2023-04-28T10:30:23.000Z,3.50
2023-04-28T10:32:47.834Z,1.25
2023-04-28T10:35:26.521Z,1.15
2023-04-28T10:38:05.741Z,3.10
2023-04-28T10:40:36.436Z,2.75
2023-04-28T10:42:56.488Z,3.13
2023-04-28T10:45:36.315Z,2.65
2023-04-28T10:48:05.409Z,2.03
2023-04-28T10:50:36.084Z,2.22
2023-04-28T10:52:59.894Z,0.93
2023-04-28T10:55:32.529Z,1.02
2023-04-28T10:58:11.557Z,1.00
2023-04-28T11:00:32.236Z,1.65
2023-04-28T11:02:53.834Z,0.80
2023-04-28T11:05:14.786Z,1.48
2023-04-28T11:07:35.418Z,0.93
2023-04-28T11:09:55.548Z,3.33
2023-04-28T11:12:15.845Z,1.02
2023-04-28T11:14:42.092Z,1.75
2023-04-28T11:17:03.354Z,2.75
2023-04-28T11:19:33.475Z,0.80
2023-04-28T11:21:58.189Z,0.80
2023-04-28T11:24:18.414Z,0.98
2023-04-28T11:26:38.837Z,0.98
2023-04-28T11:28:59.104Z,0.80
2023-04-28T11:31:21.597Z,0.90
2023-04-28T11:33:42.418Z,2.60
2023-04-28T11:36:02.526Z,0.80
2023-04-28T11:38:22.556Z,1.58
2023-04-28T11:40:56.591Z,1.10
2023-04-28T11:43:16.926Z,2.13
2023-04-28T11:45:37.281Z,1.05
2023-04-28T11:48:00.264Z,1.77
2023-04-28T11:52:51.781Z,0.70
2023-04-28T11:55:16.439Z,1.27
2023-04-28T11:57:36.759Z,1.10
2023-04-28T12:00:21.269Z,1.00
2023-04-28T12:02:42.274Z,0.80
2023-04-28T12:05:07.175Z,1.30
2023-04-28T12:07:27.919Z,1.52
2023-04-28T12:09:50.240Z,1.88
2023-04-28T12:12:14.642Z,0.80
2023-04-28T12:14:54.406Z,0.80
2023-04-28T12:17:23.623Z,1.85
2023-04-28T12:19:47.018Z,0.80
2023-04-28T12:22:07.515Z,0.70
2023-04-28T12:24:27.939Z,0.75
2023-04-28T12:26:49.047Z,0.88
2023-04-28T12:29:13.052Z,0.93
2023-04-28T12:31:47.590Z,2.35
2023-04-28T12:34:07.455Z,1.10
2023-04-28T12:36:28.076Z,0.80
2023-04-28T12:38:48.916Z,1.80
2023-04-28T12:41:08.773Z,1.58
2023-04-28T12:43:29.004Z,0.82
2023-04-28T12:45:52.845Z,3.63
2023-04-28T12:48:13.414Z,1.00
2023-04-28T12:50:33.469Z,0.90
2023-04-28T12:52:53.737Z,1.38
2023-04-28T12:55:13.715Z,0.80
2023-04-28T12:57:37.419Z,1.02
2023-04-28T12:59:59.325Z,0.80
2023-04-28T13:02:20.204Z,0.80
2023-04-28T13:04:47.523Z,1.15
2023-04-28T13:07:07.698Z,1.83
2023-04-28T13:09:27.941Z,1.38
2023-04-28T13:11:48.250Z,1.40
2023-04-28T13:14:08.492Z,0.90
2023-04-28T13:16:29.656Z,0.93
2023-04-28T13:18:49.949Z,0.90
2023-04-28T13:21:09.847Z,1.45
2023-04-28T13:23:30.074Z,0.80
2023-04-28T13:25:50.873Z,0.80
2023-04-28T13:28:12.746Z,0.90
2023-04-28T13:30:33.973Z,1.25
2023-04-28T13:32:56.088Z,3.33
2023-04-28T13:35:17.758Z,1.00
2023-04-28T13:37:42.251Z,1.55
2023-04-28T13:40:03.651Z,0.80
2023-04-28T13:42:24.287Z,1.75
2023-04-28T13:44:46.058Z,1.10
2023-04-28T13:47:09.128Z,0.90
2023-04-28T13:49:29.665Z,1.20
2023-04-28T13:51:49.957Z,0.80
2023-04-28T13:54:10.744Z,10.40
2023-04-28T13:56:31.402Z,1.50
2023-04-28T13:58:51.618Z,0.85
2023-04-28T14:01:11.862Z,3.22
2023-04-28T14:03:32.596Z,1.08
2023-04-28T14:05:53.770Z,0.98
2023-04-28T14:08:13.957Z,0.90
2023-04-28T14:10:34.055Z,1.55
2023-04-28T14:12:54.355Z,1.75
2023-04-28T14:15:15.350Z,3.03
2023-04-28T14:17:35.829Z,1.25
2023-04-28T14:19:55.964Z,1.55
2023-04-28T14:22:16.258Z,2.53
2023-04-28T14:24:36.835Z,1.95
2023-04-28T14:26:57.404Z,2.17
2023-04-28T14:29:17.856Z,1.50
2023-04-28T14:31:38.300Z,0.80
2023-04-28T14:33:58.454Z,4.05
2023-04-28T14:36:18.510Z,0.90
2023-04-28T14:38:40.258Z,4.95
2023-04-28T14:41:00.593Z,3.38
2023-04-28T14:43:21.222Z,8.05
2023-04-28T14:45:41.467Z,1.63
2023-04-28T14:48:01.659Z,0.90
2023-04-28T14:50:22.306Z,0.80
2023-04-28T14:52:42.534Z,1.55
2023-04-28T14:55:04.450Z,1.17
2023-04-28T14:57:25.276Z,2.40
2023-04-28T14:59:45.882Z,1.98
2023-04-28T15:02:07.104Z,3.08
2023-04-28T15:04:30.257Z,1.58
2023-04-28T15:06:50.431Z,0.80
2023-04-28T15:09:10.901Z,0.90
2023-04-28T15:11:32.205Z,1.20
2023-04-28T15:13:52.655Z,0.90
2023-04-28T15:16:12.724Z,2.17
2023-04-28T15:18:33.189Z,0.90
2023-04-28T15:20:53.744Z,1.52
2023-04-28T15:23:14.078Z,0.95
2023-04-28T15:25:34.074Z,0.80
2023-04-28T15:27:54.469Z,0.90
2023-04-28T15:30:14.696Z,0.90
2023-04-28T15:32:35.015Z,0.90
2023-04-28T15:34:55.148Z,0.95
2023-04-28T15:37:30.930Z,1.27
2023-04-28T15:39:51.535Z,0.90
2023-04-28T15:42:11.632Z,2.92
2023-04-28T15:44:32.126Z,2.28
2023-04-28T15:46:52.467Z,1.90
2023-04-28T15:49:13.185Z,1.27
2023-04-28T15:51:33.654Z,1.85
2023-04-28T15:53:55.091Z,3.25
2023-04-28T15:56:16.849Z,0.90
2023-04-28T15:58:39.401Z,0.90
2023-04-28T16:00:59.589Z,2.22
2023-04-28T16:03:20.141Z,1.05
2023-04-28T16:05:40.617Z,1.38
2023-04-28T16:08:01.270Z,1.20
2023-04-28T16:10:21.442Z,2.00
2023-04-28T16:12:42.524Z,1.52
2023-04-28T16:15:03.468Z,1.20
2023-04-28T16:17:23.998Z,1.63
2023-04-28T16:19:44.446Z,1.42
2023-04-28T16:22:05.022Z,6.53
2023-04-28T16:24:26.028Z,4.90
2023-04-28T16:26:45.985Z,6.88
2023-04-28T16:29:06.293Z,4.47
2023-04-28T16:31:27.015Z,1.45
2023-04-28T16:33:47.498Z,2.38
2023-04-28T16:36:07.921Z,1.33
2023-04-28T16:38:28.377Z,1.80
2023-04-28T16:40:49.175Z,2.15
2023-04-28T16:43:09.424Z,1.30
2023-04-28T16:45:29.749Z,2.47
2023-04-28T16:47:50.287Z,3.05
2023-04-28T16:50:11.506Z,2.38
2023-04-28T16:52:32.439Z,2.25
2023-04-28T16:54:52.511Z,1.88
2023-04-28T16:57:12.813Z,2.15
2023-04-28T16:59:33.328Z,2.42
2023-04-28T17:01:53.701Z,2.08
2023-04-28T17:04:14.633Z,2.85
2023-04-28T17:06:35.374Z,1.17
2023-04-28T17:08:56.215Z,1.15
2023-04-28T17:11:17.377Z,1.27
2023-04-28T17:13:37.985Z,1.10
2023-04-28T17:15:58.234Z,1.50
2023-04-28T17:18:18.833Z,1.00
2023-04-28T17:20:39.679Z,2.30
2023-04-28T17:23:00.017Z,1.50
2023-04-28T17:25:22.557Z,3.63
2023-04-28T17:27:43.443Z,3.35
2023-04-28T17:30:04.153Z,1.85
2023-04-28T17:32:24.568Z,1.60
2023-04-28T17:34:45.640Z,1.85
2023-04-28T17:37:06.133Z,4.30
2023-04-28T17:39:26.587Z,2.03
2023-04-28T17:41:47.212Z,3.63
2023-04-28T17:44:08.316Z,3.47
2023-04-28T17:46:28.777Z,1.73
2023-04-28T17:48:49.176Z,2.45
2023-04-28T17:51:09.400Z,1.80
2023-04-28T17:53:29.994Z,1.40
2023-04-28T17:55:50.387Z,2.35
2023-04-28T17:58:10.856Z,1.80
2023-04-28T18:00:31.288Z,1.48
2023-04-28T18:02:52.007Z,1.95
2023-04-28T18:05:12.308Z,2.70
2023-04-28T18:07:32.518Z,2.47
2023-04-28T18:09:52.585Z,2.33
2023-04-28T18:12:13.113Z,1.35
2023-04-28T18:14:33.472Z,1.20
2023-04-28T18:16:53.822Z,5.30
2023-04-28T18:19:13.926Z,1.20
2023-04-28T18:21:34.088Z,1.45
2023-04-28T18:23:54.292Z,2.05
2023-04-28T18:26:14.494Z,1.45
2023-04-28T18:28:34.543Z,1.10
2023-04-28T18:30:54.823Z,1.23
2023-04-28T18:33:17.444Z,1.20
2023-04-28T18:35:37.332Z,1.40
2023-04-28T18:38:00.235Z,3.20
2023-04-28T18:42:40.885Z,1.27
2023-04-28T18:45:01.804Z,3.67
2023-04-28T18:47:22.406Z,1.10
2023-04-28T18:49:43.117Z,1.38
2023-04-28T18:52:03.189Z,1.52
2023-04-28T18:54:26.069Z,2.55
2023-04-28T18:56:47.354Z,4.90
2023-04-28T18:59:08.206Z,1.23
2023-04-28T19:01:28.576Z,1.50
2023-04-28T19:03:49.050Z,3.33
2023-04-28T19:06:10.390Z,1.10
2023-04-28T19:08:31.149Z,2.03
2023-04-28T19:10:51.418Z,1.77
2023-04-28T19:13:12.104Z,2.17
2023-04-28T19:15:32.541Z,2.30
2023-04-28T19:17:53.528Z,1.80
2023-04-28T19:20:13.962Z,1.75
2023-04-28T19:22:39.408Z,1.52
2023-04-28T19:24:59.572Z,2.53
2023-04-28T19:27:19.625Z,3.13
2023-04-28T19:29:39.918Z,1.42
2023-04-28T19:31:59.984Z,1.27
2023-04-28T19:34:20.103Z,1.10
2023-04-28T19:36:40.383Z,3.75
2023-04-28T19:39:00.593Z,1.27
2023-04-28T19:41:20.581Z,1.20
2023-04-28T19:43:40.783Z,1.25
2023-04-28T19:46:01.127Z,1.50
2023-04-28T19:48:22.492Z,1.20
2023-04-28T19:50:42.759Z,2.20
2023-04-28T19:53:03.117Z,1.20
2023-04-28T19:55:23.748Z,2.05
2023-04-28T19:57:43.910Z,1.35
2023-04-28T20:00:04.127Z,2.45
2023-04-28T20:02:24.336Z,3.22
2023-04-28T20:04:44.500Z,2.10
2023-04-28T20:07:05.228Z,2.25
2023-04-28T20:09:26.154Z,1.40
2023-04-28T20:11:46.887Z,1.50
2023-04-28T20:14:06.986Z,1.52
2023-04-28T20:16:27.195Z,1.42
2023-04-28T20:18:47.254Z,1.20
2023-04-28T20:21:07.469Z,1.90
2023-04-28T20:23:28.660Z,2.63
2023-04-28T20:25:49.223Z,3.28
2023-04-28T20:28:09.412Z,1.33
2023-04-28T20:30:29.569Z,1.40
2023-04-28T20:32:50.118Z,1.48
2023-04-28T20:35:10.617Z,1.30
2023-04-28T20:37:31.346Z,2.05
2023-04-28T20:39:52.324Z,1.63
2023-04-28T20:42:13.203Z,1.40
2023-04-28T20:44:33.818Z,1.30
2023-04-28T20:46:54.680Z,1.35
2023-04-28T20:49:14.991Z,1.50
2023-04-28T20:51:36.678Z,1.45
2023-04-28T20:53:57.006Z,1.40
2023-04-28T20:56:17.103Z,3.08
2023-04-28T20:58:37.355Z,1.50
2023-04-28T21:00:57.354Z,1.83
2023-04-28T21:03:20.357Z,1.48
2023-04-28T21:05:45.012Z,2.45
2023-04-28T21:08:05.533Z,3.00
2023-04-28T21:10:25.779Z,1.30
2023-04-28T21:12:45.957Z,2.33
2023-04-28T21:15:06.212Z,1.48
2023-04-28T21:17:26.613Z,1.48
2023-04-28T21:19:46.748Z,1.20
2023-04-28T21:22:07.072Z,1.30
2023-04-28T21:24:27.089Z,1.63
2023-04-28T21:26:47.484Z,1.45
2023-04-28T21:29:08.555Z,2.35
2023-04-28T21:31:29.751Z,2.42
2023-04-28T21:33:49.971Z,2.40
2023-04-28T21:36:10.038Z,2.25
2023-04-28T21:38:30.313Z,1.73
2023-04-28T21:40:51.128Z,1.40
2023-04-28T21:43:11.489Z,1.60
2023-04-28T21:45:31.667Z,2.13
2023-04-28T21:47:51.813Z,1.73
2023-04-28T21:50:11.904Z,1.40
2023-04-28T21:52:32.324Z,2.10
2023-04-28T21:54:53.210Z,1.63
2023-04-28T21:57:15.043Z,1.63
2023-04-28T21:59:35.514Z,1.50
2023-04-28T22:01:57.398Z,2.72
2023-04-28T22:04:18.209Z,1.73
2023-04-28T22:06:38.736Z,2.33
2023-04-28T22:08:59.086Z,1.80
2023-04-28T22:11:19.088Z,1.52
2023-04-28T22:13:39.370Z,1.65
2023-04-28T22:16:00.969Z,1.70
2023-04-28T22:18:21.727Z,2.00
2023-04-28T22:20:42.116Z,3.25
2023-04-28T22:23:02.446Z,2.55
2023-04-28T22:25:23.127Z,2.30
2023-04-28T22:27:43.614Z,1.73
2023-04-28T22:30:04.113Z,2.65
2023-04-28T22:32:24.692Z,2.63
2023-04-28T22:34:45.103Z,1.70
2023-04-28T22:37:05.497Z,1.80
2023-04-28T22:39:26.298Z,2.08
2023-04-28T22:41:46.408Z,2.05
2023-04-28T22:44:06.488Z,1.30
2023-04-28T22:46:27.746Z,2.17
2023-04-28T22:48:47.842Z,3.28
2023-04-28T22:51:08.449Z,3.33
2023-04-28T22:53:28.842Z,1.50
2023-04-28T22:55:48.866Z,1.83
2023-04-28T22:58:09.256Z,1.75
2023-04-28T23:00:29.418Z,1.88
2023-04-28T23:02:49.922Z,2.00
2023-04-28T23:05:10.661Z,2.53
2023-04-28T23:07:31.169Z,2.17
2023-04-28T23:09:51.650Z,2.53
2023-04-28T23:12:12.517Z,3.90
2023-04-28T23:14:33.073Z,2.00
2023-04-28T23:16:53.575Z,1.40
2023-04-28T23:19:14.091Z,1.13
2023-04-28T23:21:34.435Z,2.45
2023-04-28T23:23:54.716Z,2.65
2023-04-28T23:26:15.523Z,1.92
2023-04-28T23:28:35.882Z,1.98
2023-04-28T23:30:56.031Z,1.23
2023-04-28T23:33:16.302Z,2.15
2023-04-28T23:35:36.926Z,1.83
2023-04-28T23:37:57.288Z,1.40
2023-04-28T23:40:17.613Z,1.48
2023-04-28T23:42:38.062Z,1.77
2023-04-28T23:44:58.491Z,1.83
2023-04-28T23:47:18.895Z,2.03
2023-04-28T23:49:39.231Z,1.90
2023-04-28T23:51:59.649Z,2.75
2023-04-28T23:54:19.743Z,2.63
2023-04-28T23:56:40.197Z,2.22
2023-04-28T23:59:00.452Z,1.80
